createdAt,value
2019-03-16T00:00:27.751Z,91.52
2019-03-16T00:01:37.699Z,90.85
2019-03-16T00:03:00.063Z,91.04
2019-03-16T00:04:09.753Z,91.14
2019-03-16T00:05:19.691Z,91.42
2019-03-16T00:06:29.643Z,91.14
2019-03-16T00:07:39.338Z,90.76
2019-03-16T00:08:49.275Z,90.85
2019-03-16T00:09:59.064Z,91.04
2019-03-16T00:11:08.797Z,90.95
2019-03-16T00:12:18.739Z,90.95
2019-03-16T00:13:28.469Z,90.95
2019-03-16T00:14:38.215Z,90.76
2019-03-16T00:15:48.182Z,90.76
2019-03-16T00:16:57.867Z,91.04
2019-03-16T00:18:07.563Z,91.14
2019-03-16T00:19:17.515Z,90.66
2019-03-16T00:20:27.232Z,91.33
2019-03-16T00:21:36.931Z,91.14
2019-03-16T00:22:46.648Z,91.42
2019-03-16T00:23:56.659Z,91.61
2019-03-16T00:25:06.599Z,91.47
2019-03-16T00:26:16.631Z,91.19
2019-03-16T00:27:26.565Z,91.28
2019-03-16T00:28:36.247Z,91.28
2019-03-16T00:29:46.174Z,91.19
2019-03-16T00:30:56.251Z,91.56
2019-03-16T00:32:15.736Z,91.85
2019-03-16T00:33:25.681Z,92.23
2019-03-16T00:34:35.637Z,92.42
2019-03-16T00:35:45.341Z,92.71
2019-03-16T00:36:55.285Z,92.52
2019-03-16T00:38:05.225Z,92.23
2019-03-16T00:39:15.256Z,92.61
2019-03-16T00:40:24.984Z,92.04
2019-03-16T00:41:34.691Z,92.42
2019-03-16T00:42:44.729Z,92.42
2019-03-16T00:43:54.687Z,92.33
2019-03-16T00:45:04.629Z,93.18
2019-03-16T00:46:14.383Z,92.8
2019-03-16T00:47:24.075Z,92.8
2019-03-16T00:48:33.775Z,92.99
2019-03-16T00:49:43.465Z,93.37
2019-03-16T00:50:53.425Z,92.99
2019-03-16T00:52:02.861Z,93.46
2019-03-16T00:53:12.810Z,92.9
2019-03-16T00:54:22.760Z,93.08
2019-03-16T00:55:32.471Z,92.99
2019-03-16T00:56:42.161Z,93.46
2019-03-16T00:57:51.590Z,93.37
2019-03-16T00:59:01.286Z,93.37
2019-03-16T01:00:11.215Z,93.37
2019-03-16T01:01:21.171Z,93.56
2019-03-16T01:02:32.794Z,93.18
2019-03-16T01:03:42.923Z,93.37
2019-03-16T01:04:52.616Z,93.65
2019-03-16T01:06:02.567Z,93.94
2019-03-16T01:07:12.562Z,93.84
2019-03-16T01:08:22.517Z,93.75
2019-03-16T01:09:32.457Z,94.32
2019-03-16T01:10:42.424Z,93.94
2019-03-16T01:11:52.355Z,93.75
2019-03-16T01:13:02.409Z,94.03
2019-03-16T01:14:12.369Z,94.23
2019-03-16T01:15:22.352Z,94.42
2019-03-16T01:16:32.291Z,94.42
2019-03-16T01:17:42.278Z,94.89
2019-03-16T01:18:52.299Z,94.98
2019-03-16T01:20:02.007Z,95.36
2019-03-16T01:21:11.710Z,95.27
2019-03-16T01:22:21.388Z,95.17
2019-03-16T01:23:31.326Z,95.27
2019-03-16T01:24:41.268Z,95.17
2019-03-16T01:25:51.239Z,95.07
2019-03-16T01:27:01.185Z,94.98
2019-03-16T01:28:11.123Z,94.89
2019-03-16T01:29:20.573Z,94.6
2019-03-16T01:30:30.561Z,95.55
2019-03-16T01:31:40.563Z,96.12
2019-03-16T01:32:50.289Z,95.84
2019-03-16T01:34:00.234Z,95.84
2019-03-16T01:35:09.921Z,95.93
2019-03-16T01:36:19.855Z,95.46
2019-03-16T01:37:29.787Z,95.93
2019-03-16T01:38:39.725Z,95.93
2019-03-16T01:39:49.673Z,96.03
2019-03-16T01:40:59.612Z,96.69
2019-03-16T01:42:09.322Z,96.31
2019-03-16T01:43:18.832Z,96.03
2019-03-16T01:44:28.859Z,96.31
2019-03-16T01:45:38.873Z,96.5
2019-03-16T01:46:48.806Z,96.78
2019-03-16T01:47:58.754Z,96.41
2019-03-16T01:49:08.442Z,96.03
2019-03-16T01:50:21.482Z,96.59
2019-03-16T01:51:31.604Z,96.12
2019-03-16T01:52:41.039Z,95.65
2019-03-16T01:53:50.720Z,96.31
2019-03-16T01:55:00.704Z,96.31
2019-03-16T01:56:10.416Z,96.22
2019-03-16T01:57:20.105Z,96.5
2019-03-16T01:58:29.791Z,96.59
2019-03-16T01:59:39.734Z,96.88
2019-03-16T02:00:49.445Z,96.31
2019-03-16T02:01:59.146Z,96.59
2019-03-16T02:03:09.090Z,96.69
2019-03-16T02:04:19.029Z,96.5
2019-03-16T02:05:28.226Z,96.12
2019-03-16T02:06:38.155Z,96.59
2019-03-16T02:07:47.600Z,97.64
2019-03-16T02:08:57.543Z,96.97
2019-03-16T02:10:07.500Z,96.69
2019-03-16T02:11:17.455Z,96.69
2019-03-16T02:12:27.399Z,96.5
2019-03-16T02:13:36.844Z,97.17
2019-03-16T02:14:46.631Z,97.74
2019-03-16T02:16:09.856Z,96.97
2019-03-16T02:17:20.294Z,97.45
2019-03-16T02:18:30.316Z,97.64
2019-03-16T02:19:40.284Z,96.97
2019-03-16T02:20:50.242Z,97.07
2019-03-16T02:21:59.933Z,96.59
2019-03-16T02:23:09.887Z,97.17
2019-03-16T02:24:19.836Z,96.59
2019-03-16T02:25:29.527Z,96.5
2019-03-16T02:26:39.458Z,96.69
2019-03-16T02:27:49.413Z,96.5
2019-03-16T02:28:59.470Z,96.78
2019-03-16T02:30:08.923Z,96.03
2019-03-16T02:31:18.702Z,96.12
2019-03-16T02:32:28.678Z,96.69
2019-03-16T02:33:38.644Z,96.31
2019-03-16T02:34:48.381Z,95.84
2019-03-16T02:35:58.355Z,96.03
2019-03-16T02:37:07.809Z,96.03
2019-03-16T02:38:17.552Z,95.93
2019-03-16T02:39:27.524Z,96.03
2019-03-16T02:40:37.482Z,96.12
2019-03-16T02:41:46.963Z,95.07
2019-03-16T02:42:56.913Z,94.6
2019-03-16T02:44:10.917Z,94.42
2019-03-16T02:45:20.757Z,94.32
2019-03-16T02:46:30.715Z,94.98
2019-03-16T02:47:40.703Z,95.27
2019-03-16T02:48:50.670Z,94.98
2019-03-16T02:50:00.840Z,94.98
2019-03-16T02:51:10.648Z,95.46
2019-03-16T02:52:20.610Z,95.93
2019-03-16T02:53:30.600Z,95.27
2019-03-16T02:54:40.549Z,95.46
2019-03-16T02:55:50.264Z,95.46
2019-03-16T02:57:00.375Z,95.07
2019-03-16T02:58:09.900Z,95.46
2019-03-16T02:59:19.381Z,95.27
2019-03-16T03:00:29.333Z,95.65
2019-03-16T03:01:39.054Z,95.84
2019-03-16T03:02:49.061Z,95.65
2019-03-16T03:03:59.004Z,95.93
2019-03-16T03:05:08.951Z,95.84
2019-03-16T03:06:18.841Z,95.93
2019-03-16T03:07:28.911Z,96.22
2019-03-16T03:08:38.863Z,96.12
2019-03-16T03:09:48.846Z,96.59
2019-03-16T03:10:58.334Z,96.03
2019-03-16T03:12:08.354Z,96.41
2019-03-16T03:13:18.355Z,96.78
2019-03-16T03:14:28.170Z,96.59
2019-03-16T03:15:37.877Z,96.88
2019-03-16T03:16:47.835Z,96.88
2019-03-16T03:17:57.928Z,96.78
2019-03-16T03:19:07.716Z,96.78
2019-03-16T03:20:17.427Z,97.07
2019-03-16T03:21:27.378Z,96.5
2019-03-16T03:22:37.094Z,96.78
2019-03-16T03:23:47.077Z,97.45
2019-03-16T03:24:56.800Z,96.97
2019-03-16T03:26:06.495Z,96.88
2019-03-16T03:27:16.445Z,96.78
2019-03-16T03:28:26.398Z,96.88
2019-03-16T03:29:36.401Z,96.78
2019-03-16T03:30:46.131Z,96.5
2019-03-16T03:31:55.904Z,96.97
2019-03-16T03:33:06.016Z,97.92
2019-03-16T03:34:15.777Z,97.55
2019-03-16T03:35:31.753Z,97.64
2019-03-16T03:36:41.709Z,97.45
2019-03-16T03:37:51.656Z,97.07
2019-03-16T03:39:01.472Z,97.74
2019-03-16T03:40:11.432Z,97.55
2019-03-16T03:41:21.658Z,98.02
2019-03-16T03:42:31.619Z,97.55
2019-03-16T03:43:41.587Z,97.64
2019-03-16T03:44:51.312Z,98.02
2019-03-16T03:46:00.841Z,97.74
2019-03-16T03:47:10.794Z,97.36
2019-03-16T03:48:20.748Z,98.3
2019-03-16T03:49:30.461Z,98.21
2019-03-16T03:50:40.173Z,98.21
2019-03-16T03:51:50.144Z,97.92
2019-03-16T03:52:59.858Z,98.3
2019-03-16T03:54:09.595Z,98.11
2019-03-16T03:55:19.564Z,99.16
2019-03-16T03:56:29.506Z,99.26
2019-03-16T03:57:38.724Z,99.06
2019-03-16T03:58:48.807Z,99.54
2019-03-16T03:59:58.792Z,98.87
2019-03-16T04:01:08.495Z,99.06
2019-03-16T04:02:18.468Z,99.16
2019-03-16T04:03:28.156Z,99.06
2019-03-16T04:04:37.858Z,99.06
2019-03-16T04:05:47.828Z,98.59
2019-03-16T04:06:57.789Z,99.26
2019-03-16T04:08:07.731Z,99.44
2019-03-16T04:09:17.613Z,99.35
2019-03-16T04:10:27.579Z,99.35
2019-03-16T04:11:37.040Z,99.73
2019-03-16T04:12:46.993Z,99.16
2019-03-16T04:13:56.468Z,99.91
2019-03-16T04:15:06.501Z,98.87
2019-03-16T04:16:16.206Z,99.91
2019-03-16T04:17:26.165Z,99.73
2019-03-16T04:18:36.112Z,99.44
2019-03-16T04:19:46.089Z,99.82
2019-03-16T04:20:56.046Z,99.63
2019-03-16T04:22:05.781Z,99.63
2019-03-16T04:23:15.744Z,99.82
2019-03-16T04:24:25.474Z,99.63
2019-03-16T04:25:35.441Z,99.99
2019-03-16T04:26:45.143Z,99.26
2019-03-16T04:27:54.840Z,99.82
2019-03-16T04:29:04.766Z,99.99
2019-03-16T04:30:14.198Z,99.82
2019-03-16T04:31:24.146Z,99.99
2019-03-16T04:32:34.098Z,99.82
2019-03-16T04:33:43.805Z,99.99
2019-03-16T04:34:53.254Z,99.99
2019-03-16T04:36:03.343Z,99.99
2019-03-16T04:37:13.285Z,99.99
2019-03-16T04:38:22.970Z,99.99
2019-03-16T04:39:32.445Z,99.99
2019-03-16T04:40:44.569Z,99.99
2019-03-16T04:41:54.781Z,99.99
2019-03-16T04:43:04.712Z,99.99
2019-03-16T04:44:14.406Z,99.99
2019-03-16T04:45:24.092Z,99.99
2019-03-16T04:46:34.104Z,99.99
2019-03-16T04:47:44.055Z,99.99
2019-03-16T04:48:53.483Z,99.99
2019-03-16T04:50:03.182Z,99.99
2019-03-16T04:51:13.206Z,99.99
2019-03-16T04:52:23.156Z,99.99
2019-03-16T04:53:33.093Z,99.99
2019-03-16T04:54:43.234Z,99.99
2019-03-16T04:55:52.933Z,99.99
2019-03-16T04:57:02.621Z,99.99
2019-03-16T04:58:12.568Z,99.99
2019-03-16T04:59:22.513Z,99.99
2019-03-16T05:00:31.724Z,99.99
2019-03-16T05:01:41.435Z,99.99
2019-03-16T05:02:51.134Z,99.99
2019-03-16T05:04:00.827Z,99.99
2019-03-16T05:05:10.544Z,99.99
2019-03-16T05:06:20.778Z,99.99
2019-03-16T05:07:30.724Z,99.99
2019-03-16T05:08:40.667Z,99.99
2019-03-16T05:09:50.652Z,99.99
2019-03-16T05:11:00.596Z,99.99
2019-03-16T05:12:10.278Z,99.99
2019-03-16T05:13:20.279Z,99.99
2019-03-16T05:14:30.067Z,99.99
2019-03-16T05:15:39.992Z,99.99
2019-03-16T05:16:49.926Z,99.99
2019-03-16T05:17:59.611Z,99.99
2019-03-16T05:19:09.554Z,99.99
2019-03-16T05:20:19.521Z,99.99
2019-03-16T05:21:29.463Z,99.99
2019-03-16T05:22:39.157Z,99.99
2019-03-16T05:23:48.606Z,99.99
2019-03-16T05:24:58.052Z,99.99
2019-03-16T05:26:08.010Z,99.99
2019-03-16T05:27:17.951Z,99.99
2019-03-16T05:28:27.899Z,99.99
2019-03-16T05:29:37.832Z,99.99
2019-03-16T05:30:47.770Z,99.99
2019-03-16T05:31:57.792Z,99.99
2019-03-16T05:33:07.748Z,99.99
2019-03-16T05:34:17.437Z,99.99
2019-03-16T05:35:26.880Z,99.99
2019-03-16T05:36:36.577Z,99.99
2019-03-16T05:37:46.546Z,99.99
2019-03-16T05:38:56.224Z,99.99
2019-03-16T05:40:06.170Z,99.99
2019-03-16T05:41:16.258Z,99.99
2019-03-16T05:42:26.207Z,99.99
2019-03-16T05:43:36.150Z,99.99
2019-03-16T05:44:45.827Z,99.99
2019-03-16T05:45:55.764Z,99.99
2019-03-16T05:47:05.727Z,99.99
2019-03-16T05:48:15.657Z,99.99
2019-03-16T05:49:25.597Z,99.99
2019-03-16T05:50:35.533Z,99.99
2019-03-16T05:51:45.484Z,99.99
2019-03-16T05:52:55.427Z,99.99
2019-03-16T05:54:05.378Z,99.99
2019-03-16T05:55:15.318Z,99.99
2019-03-16T05:56:25.338Z,99.99
2019-03-16T05:57:35.031Z,99.99
2019-03-16T05:58:44.966Z,99.99
2019-03-16T05:59:54.917Z,99.99
2019-03-16T06:01:04.858Z,99.99
2019-03-16T06:02:14.886Z,99.99
2019-03-16T06:03:24.578Z,99.99
2019-03-16T06:04:34.275Z,99.99
2019-03-16T06:05:44.227Z,99.99
2019-03-16T06:06:54.168Z,99.99
2019-03-16T06:08:03.609Z,99.99
2019-03-16T06:09:13.298Z,99.99
2019-03-16T06:10:22.985Z,99.99
2019-03-16T06:11:32.938Z,99.99
2019-03-16T06:12:42.463Z,99.99
2019-03-16T06:13:54.260Z,99.99
2019-03-16T06:15:03.981Z,99.99
2019-03-16T06:16:13.691Z,99.99
2019-03-16T06:17:23.625Z,99.99
2019-03-16T06:18:33.415Z,99.99
2019-03-16T06:19:43.353Z,99.99
2019-03-16T06:20:53.043Z,99.99
2019-03-16T06:22:02.975Z,99.99
2019-03-16T06:23:12.674Z,99.99
2019-03-16T06:24:22.369Z,99.99
2019-03-16T06:25:35.692Z,99.99
2019-03-16T06:26:45.633Z,99.99
2019-03-16T06:27:55.594Z,99.99
2019-03-16T06:29:05.274Z,99.99
2019-03-16T06:30:14.970Z,99.99
2019-03-16T06:31:28.483Z,99.99
2019-03-16T06:32:38.415Z,99.99
2019-03-16T06:33:48.370Z,99.99
2019-03-16T06:34:58.317Z,99.91
2019-03-16T06:36:08.013Z,99.99
2019-03-16T06:37:17.974Z,99.99
2019-03-16T06:38:27.923Z,99.99
2019-03-16T06:39:37.871Z,99.99
2019-03-16T06:40:47.308Z,99.54
2019-03-16T06:41:56.985Z,99.99
2019-03-16T06:43:06.933Z,99.63
2019-03-16T06:44:16.873Z,99.68
2019-03-16T06:45:26.566Z,99.54
2019-03-16T06:46:36.509Z,99.99
2019-03-16T06:47:46.205Z,99.68
2019-03-16T06:48:57.781Z,99.06
2019-03-16T06:50:07.484Z,99.11
2019-03-16T06:51:16.923Z,99.21
2019-03-16T06:52:26.627Z,99.21
2019-03-16T06:53:36.333Z,99.3
2019-03-16T06:54:46.263Z,99.02
2019-03-16T06:55:56.220Z,99.21
2019-03-16T06:57:05.913Z,98.92
2019-03-16T06:58:15.111Z,99.21
2019-03-16T06:59:25.051Z,99.21
2019-03-16T07:00:34.737Z,98.92
2019-03-16T07:01:44.181Z,99.11
2019-03-16T07:02:53.887Z,99.4
2019-03-16T07:04:03.580Z,98.64
2019-03-16T07:05:13.539Z,98.35
2019-03-16T07:06:40.550Z,98.54
2019-03-16T07:07:50.251Z,98.64
2019-03-16T07:09:00.190Z,98.73
2019-03-16T07:10:09.893Z,98.26
2019-03-16T07:11:19.848Z,97.69
2019-03-16T07:12:29.796Z,97.97
2019-03-16T07:13:42.452Z,97.88
2019-03-16T07:14:52.387Z,97.88
2019-03-16T07:16:02.080Z,97.78
2019-03-16T07:17:11.775Z,97.6
2019-03-16T07:18:21.727Z,97.6
2019-03-16T07:19:33.743Z,97.69
2019-03-16T07:20:43.693Z,97.02
2019-03-16T07:21:53.673Z,97.69
2019-03-16T07:23:03.127Z,96.93
2019-03-16T07:24:12.921Z,96.64
2019-03-16T07:25:22.879Z,96.83
2019-03-16T07:26:32.608Z,96.64
2019-03-16T07:27:42.806Z,96.83
2019-03-16T07:28:52.501Z,96.74
2019-03-16T07:30:02.503Z,96.83
2019-03-16T07:31:12.211Z,96.83
2019-03-16T07:32:22.168Z,96.55
2019-03-16T07:33:31.110Z,96.36
2019-03-16T07:34:41.067Z,96.36
2019-03-16T07:35:50.504Z,97.12
2019-03-16T07:37:00.464Z,97.02
2019-03-16T07:38:10.412Z,96.74
2019-03-16T07:39:20.351Z,96.83
2019-03-16T07:40:30.289Z,97.02
2019-03-16T07:41:40.256Z,96.98
2019-03-16T07:42:50.237Z,96.6
2019-03-16T07:43:59.929Z,96.69
2019-03-16T07:45:10.884Z,96.22
2019-03-16T07:46:20.842Z,96.03
2019-03-16T07:47:30.829Z,96.12
2019-03-16T07:48:40.265Z,96.22
2019-03-16T07:49:50.293Z,96.12
2019-03-16T07:51:00.238Z,96.5
2019-03-16T07:52:09.694Z,96.12
2019-03-16T07:53:19.642Z,96.22
2019-03-16T07:54:31.154Z,96.31
2019-03-16T07:55:44.763Z,96.69
2019-03-16T07:56:54.747Z,95.84
2019-03-16T07:58:04.689Z,96.22
2019-03-16T07:59:14.653Z,96.6
2019-03-16T08:00:24.181Z,96.22
2019-03-16T08:01:34.132Z,95.94
2019-03-16T08:02:43.823Z,96.31
2019-03-16T08:03:53.515Z,96.22
2019-03-16T08:05:16.821Z,95.84
2019-03-16T08:06:27.456Z,95.75
2019-03-16T08:07:40.858Z,96.12
2019-03-16T08:08:50.558Z,96.22
2019-03-16T08:10:03.042Z,96.12
2019-03-16T08:11:13.466Z,95.55
2019-03-16T08:12:23.175Z,96.03
2019-03-16T08:13:35.468Z,96.03
2019-03-16T08:14:45.156Z,95.75
2019-03-16T08:15:54.845Z,96.03
2019-03-16T08:17:04.560Z,95.65
2019-03-16T08:18:14.008Z,95.75
2019-03-16T08:19:23.973Z,95.27
2019-03-16T08:20:34.180Z,95.75
2019-03-16T08:21:44.132Z,95.27
2019-03-16T08:22:54.074Z,95.08
2019-03-16T08:24:04.121Z,94.89
2019-03-16T08:25:13.889Z,94.7
2019-03-16T08:26:23.838Z,94.98
2019-03-16T08:27:33.785Z,94.7
2019-03-16T08:28:58.926Z,94.79
2019-03-16T08:30:08.839Z,94.7
2019-03-16T08:31:18.793Z,94.79
2019-03-16T08:32:28.486Z,93.65
2019-03-16T08:33:38.173Z,93.56
2019-03-16T08:34:48.115Z,93.37
2019-03-16T08:35:58.058Z,93.84
2019-03-16T08:37:07.751Z,93.94
2019-03-16T08:38:17.716Z,93.18
2019-03-16T08:39:27.424Z,94.03
2019-03-16T08:40:37.110Z,93.37
2019-03-16T08:41:47.051Z,92.9
2019-03-16T08:42:56.087Z,93.27
2019-03-16T08:44:06.040Z,93.51
2019-03-16T08:45:15.981Z,92.51
2019-03-16T08:46:25.926Z,91.85
2019-03-16T08:47:35.866Z,92.66
2019-03-16T08:48:45.570Z,91.42
2019-03-16T08:49:55.255Z,92.37
2019-03-16T08:51:04.951Z,91.13
2019-03-16T08:52:14.893Z,91.52
2019-03-16T08:53:25.324Z,91.42
2019-03-16T08:54:35.264Z,91.8
2019-03-16T08:55:45.207Z,91.42
2019-03-16T08:56:55.154Z,90.85
2019-03-16T08:58:08.706Z,91.13
2019-03-16T08:59:18.664Z,91.04
2019-03-16T09:00:29.553Z,90.28
2019-03-16T09:01:39.497Z,90.37
2019-03-16T09:02:48.708Z,89.52
2019-03-16T09:03:58.415Z,89.33
2019-03-16T09:05:08.366Z,89.8
2019-03-16T09:06:18.046Z,89.9
2019-03-16T09:07:27.762Z,89.71
2019-03-16T09:08:37.705Z,89.8
2019-03-16T09:09:47.440Z,89.52
2019-03-16T09:10:57.161Z,89.8
2019-03-16T09:12:07.108Z,89.14
2019-03-16T09:13:16.822Z,88.85
2019-03-16T09:14:26.499Z,88.57
2019-03-16T09:15:36.454Z,88.85
2019-03-16T09:16:45.656Z,88.85
2019-03-16T09:17:55.616Z,89.8
2019-03-16T09:19:05.582Z,89.04
2019-03-16T09:20:15.557Z,89.23
2019-03-16T09:21:25.503Z,89.42
2019-03-16T09:22:34.697Z,89.23
2019-03-16T09:23:44.406Z,89.23
2019-03-16T09:24:54.378Z,88.76
2019-03-16T09:26:04.311Z,89.04
2019-03-16T09:27:14.256Z,88.85
2019-03-16T09:28:36.263Z,88.47
2019-03-16T09:29:46.208Z,88.85
2019-03-16T09:30:58.876Z,88.85
2019-03-16T09:32:08.575Z,88.57
2019-03-16T09:33:18.189Z,88.09
2019-03-16T09:34:28.788Z,87.71
2019-03-16T09:35:38.572Z,88
2019-03-16T09:36:48.264Z,88.47
2019-03-16T09:37:58.211Z,87.81
2019-03-16T09:39:10.540Z,87.34
2019-03-16T09:40:20.482Z,85.91
2019-03-16T09:41:30.438Z,86.76
2019-03-16T09:42:40.398Z,87.05
2019-03-16T09:43:50.184Z,88
2019-03-16T09:45:00.133Z,88
2019-03-16T09:46:10.116Z,87.71
2019-03-16T09:47:20.115Z,87.47
2019-03-16T09:48:30.086Z,86.9
2019-03-16T09:49:40.030Z,86.52
2019-03-16T09:50:49.993Z,85.66
2019-03-16T09:51:59.955Z,85.86
2019-03-16T09:53:09.670Z,85.66
2019-03-16T09:54:19.623Z,85.95
2019-03-16T09:55:29.103Z,86.24
2019-03-16T09:56:40.267Z,85.57
2019-03-16T09:58:03.452Z,85.38
2019-03-16T09:59:13.147Z,85.1
2019-03-16T10:00:22.856Z,85.66
2019-03-16T10:01:32.806Z,85.47
2019-03-16T10:02:42.759Z,85.57
2019-03-16T10:03:52.702Z,85.19
2019-03-16T10:05:02.653Z,84.62
2019-03-16T10:06:12.349Z,84.91
2019-03-16T10:07:22.371Z,84.72
2019-03-16T10:08:31.823Z,85.1
2019-03-16T10:09:41.780Z,84.81
2019-03-16T10:10:51.747Z,85
2019-03-16T10:12:01.450Z,84.38
2019-03-16T10:13:11.143Z,84.52
2019-03-16T10:14:20.867Z,85
2019-03-16T10:15:30.841Z,84.81
2019-03-16T10:16:40.540Z,84.47
2019-03-16T10:17:50.500Z,84.09
2019-03-16T10:19:00.443Z,83.81
2019-03-16T10:20:10.400Z,83.81
2019-03-16T10:21:21.409Z,83.42
2019-03-16T10:22:31.365Z,83.71
2019-03-16T10:23:41.068Z,83.9
2019-03-16T10:24:50.779Z,82.86
2019-03-16T10:26:00.728Z,83.23
2019-03-16T10:27:10.692Z,83.23
2019-03-16T10:28:20.654Z,82.95
2019-03-16T10:29:30.622Z,83.14
2019-03-16T10:30:40.590Z,82.28
2019-03-16T10:31:50.305Z,82.67
2019-03-16T10:33:00.276Z,82.76
2019-03-16T10:34:10.262Z,82.95
2019-03-16T10:35:19.975Z,82.86
2019-03-16T10:36:29.994Z,81.81
2019-03-16T10:37:39.939Z,80.57
2019-03-16T10:38:49.874Z,81.24
2019-03-16T10:39:59.085Z,80.29
2019-03-16T10:41:09.031Z,80.38
2019-03-16T10:42:19.036Z,80.38
2019-03-16T10:43:29.006Z,80.47
2019-03-16T10:44:38.960Z,80.1
2019-03-16T10:45:48.922Z,80.47
2019-03-16T10:46:58.635Z,80.86
2019-03-16T10:48:08.335Z,80.29
2019-03-16T10:49:18.278Z,80.57
2019-03-16T10:50:28.236Z,80.47
2019-03-16T10:51:38.184Z,81.14
2019-03-16T10:52:48.143Z,81.33
2019-03-16T10:53:58.090Z,81.24
2019-03-16T10:55:07.540Z,81.9
2019-03-16T10:56:17.247Z,81.96
2019-03-16T10:57:26.958Z,82.05
2019-03-16T10:58:36.671Z,81.71
2019-03-16T10:59:58.904Z,80.86
2019-03-16T11:01:08.358Z,81.33
2019-03-16T11:02:18.323Z,81.33
2019-03-16T11:03:28.283Z,80.76
2019-03-16T11:04:38.229Z,80.86
2019-03-16T11:05:47.935Z,81.43
2019-03-16T11:06:57.891Z,80.86
2019-03-16T11:08:07.865Z,81.33
2019-03-16T11:09:17.566Z,80.57
2019-03-16T11:10:29.419Z,80.76
2019-03-16T11:11:39.369Z,80.1
2019-03-16T11:12:49.433Z,80.38
2019-03-16T11:13:59.381Z,80.1
2019-03-16T11:15:09.087Z,80.29
2019-03-16T11:16:19.039Z,80.19
2019-03-16T11:17:28.237Z,80.63
2019-03-16T11:18:38.221Z,79.86
2019-03-16T11:19:48.192Z,80.72
2019-03-16T11:20:58.153Z,79.96
2019-03-16T11:22:08.106Z,79.96
2019-03-16T11:23:18.060Z,79.77
2019-03-16T11:24:27.504Z,80.15
2019-03-16T11:25:37.465Z,80.44
2019-03-16T11:26:47.197Z,80.91
2019-03-16T11:27:57.247Z,80.91
2019-03-16T11:29:11.797Z,80.82
2019-03-16T11:30:21.756Z,84.05
2019-03-16T11:31:31.455Z,86.33
2019-03-16T11:32:41.153Z,86
2019-03-16T11:33:51.077Z,85.38
2019-03-16T11:35:01.056Z,85.91
2019-03-16T11:36:11.022Z,86.67
2019-03-16T11:37:20.967Z,88
2019-03-16T11:38:30.927Z,88.09
2019-03-16T11:39:40.876Z,87.9
2019-03-16T11:40:50.597Z,87.05
2019-03-16T11:42:00.049Z,87.81
2019-03-16T11:43:10.003Z,87.67
2019-03-16T11:44:19.957Z,87.95
2019-03-16T11:45:29.905Z,89.09
2019-03-16T11:46:39.876Z,91.38
2019-03-16T11:47:49.824Z,92.13
2019-03-16T11:48:59.773Z,91.85
2019-03-16T11:50:09.563Z,90.9
2019-03-16T11:51:19.517Z,92.9
2019-03-16T11:52:29.228Z,92.61
2019-03-16T11:53:39.173Z,93.75
2019-03-16T11:54:48.874Z,93.18
2019-03-16T11:55:58.573Z,91.94
2019-03-16T11:57:20.234Z,90.99
2019-03-16T11:58:30.196Z,92.51
2019-03-16T11:59:39.903Z,92.8
2019-03-16T12:00:49.602Z,93.84
2019-03-16T12:02:07.563Z,97.27
2019-03-16T12:03:17.041Z,99.07
2019-03-16T12:04:26.726Z,99.99
2019-03-16T12:05:36.439Z,99.99
2019-03-16T12:06:46.385Z,99.99
2019-03-16T12:07:56.381Z,99.99
2019-03-16T12:09:05.827Z,99.99
2019-03-16T12:10:15.847Z,99.99
2019-03-16T12:11:25.834Z,99.99
2019-03-16T12:12:35.545Z,99.99
2019-03-16T12:13:46.541Z,99.99
2019-03-16T12:14:56.243Z,99.99
2019-03-16T12:16:06.203Z,99.99
2019-03-16T12:17:15.655Z,99.99
2019-03-16T12:18:25.377Z,99.99
2019-03-16T12:19:35.325Z,99.99
2019-03-16T12:20:45.282Z,99.99
2019-03-16T12:21:55.230Z,99.99
2019-03-16T12:23:04.926Z,99.99
2019-03-16T12:24:14.634Z,99.99
2019-03-16T12:25:24.605Z,99.99
2019-03-16T12:26:34.560Z,99.99
2019-03-16T12:27:44.015Z,99.99
2019-03-16T12:28:53.725Z,99.99
2019-03-16T12:30:03.676Z,99.99
2019-03-16T12:31:13.638Z,99.99
2019-03-16T12:32:23.353Z,99.99
2019-03-16T12:33:33.315Z,99.99
2019-03-16T12:34:43.019Z,99.99
2019-03-16T12:35:52.471Z,99.99
2019-03-16T12:37:02.445Z,99.99
2019-03-16T12:38:12.407Z,99.99
2019-03-16T12:39:22.341Z,99.99
2019-03-16T12:40:31.801Z,99.99
2019-03-16T12:41:41.748Z,99.99
2019-03-16T12:42:51.459Z,99.99
2019-03-16T12:44:01.479Z,99.99
2019-03-16T12:45:10.914Z,99.99
2019-03-16T12:46:23.615Z,99.99
2019-03-16T12:47:33.821Z,99.99
2019-03-16T12:48:43.811Z,99.99
2019-03-16T12:49:53.371Z,99.99
2019-03-16T12:51:03.321Z,99.99
2019-03-16T12:52:13.093Z,99.99
2019-03-16T12:53:22.803Z,99.99
2019-03-16T12:54:32.560Z,99.99
2019-03-16T12:55:42.690Z,99.99
2019-03-16T12:56:52.385Z,99.99
2019-03-16T12:58:02.338Z,99.99
2019-03-16T12:59:13.194Z,99.99
2019-03-16T13:00:23.207Z,99.99
2019-03-16T13:01:33.278Z,99.99
2019-03-16T13:02:43.246Z,99.99
2019-03-16T13:03:53.200Z,99.99
2019-03-16T13:05:02.888Z,99.99
2019-03-16T13:06:12.349Z,99.99
2019-03-16T13:07:24.511Z,99.99
2019-03-16T13:08:34.595Z,99.99
2019-03-16T13:09:45.065Z,99.99
2019-03-16T13:10:54.783Z,99.99
2019-03-16T13:12:04.259Z,99.99
2019-03-16T13:13:13.467Z,99.99
2019-03-16T13:14:23.419Z,99.99
2019-03-16T13:15:33.525Z,99.99
2019-03-16T13:16:43.477Z,99.99
2019-03-16T13:17:52.943Z,99.99
2019-03-16T13:19:02.648Z,99.99
2019-03-16T13:20:15.409Z,99.99
2019-03-16T13:21:25.379Z,99.99
2019-03-16T13:22:35.214Z,99.99
2019-03-16T13:23:45.259Z,99.99
2019-03-16T13:24:54.979Z,99.99
2019-03-16T13:26:04.935Z,99.99
2019-03-16T13:27:14.903Z,99.99
2019-03-16T13:28:24.642Z,99.99
2019-03-16T13:29:34.655Z,99.99
2019-03-16T13:30:44.391Z,99.99
2019-03-16T13:31:54.110Z,99.99
2019-03-16T13:33:04.102Z,99.99
2019-03-16T13:34:14.037Z,99.99
2019-03-16T13:35:24.001Z,99.99
2019-03-16T13:36:33.981Z,99.99
2019-03-16T13:37:44.090Z,99.99
2019-03-16T13:38:54.056Z,99.99
2019-03-16T13:40:03.763Z,99.99
2019-03-16T13:41:13.458Z,99.99
2019-03-16T13:42:22.965Z,99.99
2019-03-16T13:43:32.412Z,99.99
2019-03-16T13:44:42.120Z,99.99
2019-03-16T13:45:52.282Z,99.99
2019-03-16T13:47:02.247Z,99.99
2019-03-16T13:48:12.210Z,99.99
2019-03-16T13:49:21.936Z,99.99
2019-03-16T13:50:31.959Z,99.99
2019-03-16T13:51:42.746Z,99.99
2019-03-16T13:52:53.269Z,99.99
2019-03-16T13:54:03.243Z,99.99
2019-03-16T13:55:13.213Z,99.99
2019-03-16T13:56:22.980Z,99.99
2019-03-16T13:57:33.555Z,99.99
2019-03-16T13:58:44.153Z,99.99
2019-03-16T13:59:54.118Z,99.99
2019-03-16T14:01:16.486Z,99.99
2019-03-16T14:02:26.200Z,99.99
2019-03-16T14:03:36.322Z,99.99
2019-03-16T14:04:47.212Z,99.99
2019-03-16T14:05:57.440Z,99.99
2019-03-16T14:07:07.158Z,99.99
2019-03-16T14:08:16.990Z,99.99
2019-03-16T14:09:26.984Z,99.99
2019-03-16T14:10:37.871Z,99.99
2019-03-16T14:11:47.582Z,99.99
2019-03-16T14:12:57.566Z,99.99
2019-03-16T14:14:07.541Z,99.99
2019-03-16T14:15:17.742Z,99.99
2019-03-16T14:16:27.962Z,99.99
2019-03-16T14:17:39.064Z,99.99
2019-03-16T14:18:49.542Z,99.99
2019-03-16T14:19:59.269Z,99.99
2019-03-16T14:21:09.025Z,99.99
2019-03-16T14:22:19.016Z,99.99
2019-03-16T14:23:28.993Z,99.99
2019-03-16T14:24:39.246Z,99.99
2019-03-16T14:25:49.210Z,99.99
2019-03-16T14:26:59.717Z,99.99
2019-03-16T14:28:11.364Z,99.99
2019-03-16T14:29:21.343Z,99.99
2019-03-16T14:30:45.135Z,99.99
2019-03-16T14:31:55.254Z,99.99
2019-03-16T14:33:05.267Z,99.99
2019-03-16T14:34:14.730Z,99.99
2019-03-16T14:35:24.732Z,99.99
2019-03-16T14:36:34.744Z,99.99
2019-03-16T14:37:44.778Z,99.99
2019-03-16T14:38:54.788Z,99.99
2019-03-16T14:40:04.890Z,99.99
2019-03-16T14:41:17.897Z,99.99
2019-03-16T14:42:28.391Z,99.99
2019-03-16T14:43:38.424Z,99.99
2019-03-16T14:44:48.508Z,99.99
2019-03-16T14:45:57.742Z,99.99
2019-03-16T14:47:08.146Z,99.99
2019-03-16T14:48:18.624Z,99.99
2019-03-16T14:49:29.171Z,99.99
2019-03-16T14:50:39.462Z,99.99
2019-03-16T14:51:48.961Z,99.99
2019-03-16T14:52:58.668Z,99.99
2019-03-16T14:54:08.643Z,99.99
2019-03-16T14:55:18.592Z,99.99
2019-03-16T14:56:28.555Z,99.99
2019-03-16T14:57:38.508Z,99.99
2019-03-16T14:58:48.480Z,99.99
2019-03-16T14:59:59.411Z,99.99
2019-03-16T15:01:09.584Z,99.99
2019-03-16T15:02:20.801Z,99.99
2019-03-16T15:03:30.750Z,99.99
2019-03-16T15:04:40.446Z,99.99
2019-03-16T15:05:50.420Z,99.99